Time;durP1;ratioP1;P1;durP2;ratioP2;P2;SDS_P1;SDS_P2;PMS_P1;PMS_P2;Temp;Humidity;BMP_temperature;BMP_pressure;BME280_temperature;BME280_humidity;BME280_pressure;Samples;Min_cycle;Max_cycle;Signal;HPM_P1;HPM_P2
2022/05/31 05:58:18;;;;;;;1.73;1.63;;;;;;;22.28;50.62;94417.63;1042524;54;21188478;-84
2022/05/31 06:07:18;;;;;;;3.13;1.55;;;;;;;22.75;50.84;94540.97;2621501;46;20160;-82
2022/05/31 07:09:49;;;;;;;3.75;2.17;;;;;;;25.67;45.63;94633.34;2615641;39;20664;-81
2022/05/31 07:12:37;;;;;;;3.58;2.35;;;;;;;25.79;46.73;94629.41;2615292;54;20191;-79
2022/05/31 07:15:25;;;;;;;3.30;2.75;;;;;;;24.61;48.70;94582.25;2615587;54;20187;-78
2022/05/31 07:18:11;;;;;;;4.63;2.65;;;;;;;25.59;46.42;94644.41;2616678;47;20272;-80
2022/05/31 07:24:46;;;;;;;6.55;3.63;;;;;;;26.10;45.85;94629.31;2615892;47;20967;-79
2022/05/31 08:31:40;;;;;;;2.75;2.13;;;;;;;27.66;41.51;94604.19;2622129;54;20123;-83
2022/05/31 08:44:36;;;;;;;2.10;2.00;;;;;;;26.46;39.96;94377.84;2619484;46;20306;-81
2022/05/31 10:28:33;;;;;;;2.10;2.00;;;;;;;29.62;33.78;94552.25;2620283;54;20328;-88
2022/05/31 10:51:09;;;;;;;1.50;1.40;;;;;;;29.81;34.66;94522.25;2615155;46;20188;-84
2022/05/31 16:31:28;;;;;;;2.40;2.20;;;;;;;18.43;78.52;94616.59;2613465;53;41756;-81
2022/05/31 16:33:59;;;;;;;3.20;2.53;;;;;;;18.14;80.53;94583.56;2621248;46;20156;-81
2022/05/31 16:36:34;;;;;;;2.87;2.60;;;;;;;18.14;82.39;94608.63;2621356;46;20263;-81
2022/05/31 16:41:44;;;;;;;3.27;2.67;;;;;;;18.27;83.23;94628.00;2619992;46;20132;-81
2022/05/31 16:44:15;;;;;;;3.50;3.30;;;;;;;18.77;83.34;94643.88;2621639;54;20663;-81
2022/05/31 16:46:46;;;;;;;3.67;3.37;;;;;;;18.90;83.31;94621.66;2622320;47;20160;-86
2022/05/31 16:49:15;;;;;;;4.30;2.93;;;;;;;18.48;81.08;94629.47;2621249;54;20168;-87
2022/05/31 16:51:48;;;;;;;3.73;3.43;;;;;;;18.04;81.51;94609.31;2619007;47;20179;-87
2022/05/31 16:54:21;;;;;;;2.57;2.37;;;;;;;17.77;81.14;94591.28;2617729;52;20292;-86
2022/05/31 16:56:55;;;;;;;3.07;2.83;;;;;;;18.03;81.88;94642.28;2619105;31;20659;-87
2022/05/31 16:59:25;;;;;;;2.50;2.30;;;;;;;17.37;79.51;94572.47;2618901;54;20145;-86
2022/05/31 17:01:57;;;;;;;2.10;1.93;;;;;;;17.66;80.79;94627.78;2618411;47;20164;-84
2022/05/31 17:04:28;;;;;;;2.00;1.80;;;;;;;17.60;82.01;94618.41;2618087;54;20259;-85
2022/05/31 17:15:06;;;;;;;2.87;2.67;;;;;;;15.84;86.73;94469.88;2618055;47;20240;-83
2022/05/31 17:17:39;;;;;;;4.10;3.00;;;;;;;15.99;85.60;94482.13;2617878;47;20487;-85
2022/05/31 17:20:21;;;;;;;4.13;2.63;;;;;;;15.19;83.41;94392.09;2617832;47;20409;-84
2022/05/31 17:22:53;;;;;;;3.27;2.63;;;;;;;16.63;82.77;94587.75;2617414;47;20160;-86
2022/05/31 17:25:26;;;;;;;2.53;2.43;;;;;;;16.44;83.58;94562.50;2617566;54;20199;-84
2022/05/31 17:27:55;;;;;;;3.17;2.97;;;;;;;16.43;83.66;94578.22;2617483;47;20446;-82
2022/05/31 17:30:24;;;;;;;3.50;3.20;;;;;;;16.34;83.17;94561.03;2617189;47;20296;-82
2022/05/31 17:33:00;;;;;;;2.50;2.33;;;;;;;15.92;83.18;94503.47;2617613;47;20161;-82
2022/05/31 17:35:30;;;;;;;2.83;2.63;;;;;;;16.17;82.76;94535.84;2617604;39;20510;-84
2022/05/31 17:37:59;;;;;;;2.57;2.37;;;;;;;15.61;82.61;94456.78;2617173;54;20184;-83
2022/05/31 17:40:30;;;;;;;2.43;2.33;;;;;;;16.45;81.61;94558.25;2617567;47;20406;-82
2022/05/31 17:42:59;;;;;;;2.43;2.23;;;;;;;15.83;81.45;94442.00;2617495;47;20161;-83
2022/05/31 17:45:28;;;;;;;2.30;2.10;;;;;;;16.93;81.22;94566.50;2617387;47;20179;-84
2022/05/31 17:47:59;;;;;;;3.80;2.80;;;;;;;16.50;79.18;94508.25;2616549;46;20820;-84
2022/05/31 17:50:28;;;;;;;2.63;2.43;;;;;;;16.87;77.26;94561.47;2616859;47;20184;-83
2022/05/31 17:52:57;;;;;;;2.50;2.30;;;;;;;17.36;76.84;94588.22;2617141;47;20161;-83
2022/05/31 17:55:25;;;;;;;2.33;2.13;;;;;;;17.06;78.00;94588.06;2617727;47;20244;-80
2022/05/31 17:57:54;;;;;;;3.67;1.53;;;;;;;16.79;76.67;94512.06;2617367;54;20168;-83
2022/05/31 18:00:23;;;;;;;2.17;2.07;;;;;;;17.71;78.12;94608.47;2617502;47;20164;-82
2022/05/31 18:02:52;;;;;;;2.83;2.50;;;;;;;17.87;77.37;94628.59;2617358;47;20252;-83
2022/05/31 18:05:30;;;;;;;1.40;1.30;;;;;;;17.18;75.13;94479.38;2617175;54;20165;-83
2022/05/31 18:08:03;;;;;;;2.00;1.90;;;;;;;18.96;72.30;94644.63;2617144;47;20271;-82
2022/05/31 18:10:32;;;;;;;2.07;1.90;;;;;;;18.85;72.41;94649.66;2617162;47;20172;-82
2022/05/31 18:13:00;;;;;;;1.80;1.70;;;;;;;18.83;70.21;94549.22;2617488;46;20165;-83
2022/05/31 18:15:29;;;;;;;3.37;1.97;;;;;;;19.71;69.69;94659.63;2617145;54;20164;-82
2022/05/31 18:17:58;;;;;;;1.80;1.70;;;;;;;20.14;67.88;94663.09;2617326;54;20176;-82
2022/05/31 18:20:30;;;;;;;2.47;2.38;;;;;;;20.13;66.60;94630.03;2617374;54;20171;-82
2022/05/31 18:22:59;;;;;;;2.33;1.88;;;;;;;18.67;67.26;94633.13;2617296;46;20183;-81
2022/05/31 18:25:31;;;;;;;2.23;2.03;;;;;;;18.02;70.91;94672.34;2618056;39;20602;-82
2022/05/31 18:30:41;;;;;;;9.53;2.80;;;;;;;18.46;73.01;94683.25;2617412;47;20215;-84
2022/05/31 18:33:10;;;;;;;1.73;1.63;;;;;;;18.74;71.07;94631.69;2617399;54;20190;-82
2022/05/31 18:35:43;;;;;;;4.13;2.03;;;;;;;18.90;69.83;94613.06;2617555;47;20264;-82
2022/05/31 18:38:32;;;;;;;3.33;1.93;;;;;;;19.11;68.04;94654.69;2617200;54;20185;-83
2022/05/31 18:41:02;;;;;;;1.93;1.73;;;;;;;18.76;70.15;94671.88;2617660;47;20165;-82
2022/05/31 18:43:30;;;;;;;1.80;1.70;;;;;;;19.84;67.64;94689.06;2617585;54;20271;-81
2022/05/31 18:46:00;;;;;;;1.73;1.63;;;;;;;20.53;65.13;94685.94;2617890;47;20179;-84
2022/05/31 18:48:30;;;;;;;1.23;1.13;;;;;;;20.76;63.69;94680.78;2617548;47;20260;-83
2022/05/31 18:51:02;;;;;;;1.00;1.00;;;;;;;21.00;61.93;94662.63;2617788;47;20179;-84
2022/05/31 18:53:31;;;;;;;1.88;1.65;;;;;;;20.89;62.73;94682.88;2617624;54;20206;-83
2022/05/31 18:56:00;;;;;;;2.35;1.50;;;;;;;20.79;63.44;94662.75;2617414;47;20156;-82
2022/05/31 18:58:33;;;;;;;1.80;1.67;;;;;;;21.39;61.84;94680.34;2617089;46;20427;-82
2022/05/31 19:01:01;;;;;;;2.22;2.05;;;;;;;21.59;61.17;94685.94;2617307;47;20723;-82
2022/05/31 19:03:32;;;;;;;1.80;1.70;;;;;;;21.60;60.43;94672.94;2617108;54;20727;-82
2022/05/31 19:06:07;;;;;;;1.80;1.70;;;;;;;20.38;61.39;94572.41;2617136;47;20259;-81
2022/05/31 19:08:36;;;;;;;1.70;1.60;;;;;;;21.53;60.20;94674.47;2617484;54;20172;-82
2022/05/31 19:11:05;;;;;;;1.73;1.63;;;;;;;21.57;60.41;94688.84;2617561;54;20209;-83
2022/05/31 19:13:40;;;;;;;2.53;2.33;;;;;;;21.10;61.37;94643.09;2617389;54;20260;-83
2022/05/31 19:16:09;;;;;;;2.05;1.95;;;;;;;21.40;61.05;94676.72;2617417;47;20171;-84
2022/05/31 19:18:40;;;;;;;2.20;2.10;;;;;;;21.05;60.71;94612.19;2617561;47;20149;-82
2022/05/31 19:21:17;;;;;;;2.08;1.92;;;;;;;21.22;59.90;94611.34;2617475;47;20207;-81
2022/05/31 19:23:45;;;;;;;2.28;2.17;;;;;;;21.72;59.93;94683.66;2617532;47;20153;-82
2022/05/31 19:26:14;;;;;;;1.70;1.60;;;;;;;21.69;59.88;94685.84;2617461;54;20695;-81
2022/05/31 19:28:43;;;;;;;2.70;1.70;;;;;;;21.60;59.69;94676.53;2617324;54;20173;-82
2022/05/31 19:31:15;;;;;;;1.98;1.88;;;;;;;21.50;60.50;94670.16;2617116;47;20219;-83
2022/05/31 19:33:49;;;;;;;2.83;1.55;;;;;;;21.63;59.81;94662.81;2617299;47;20264;-83
2022/05/31 19:36:21;;;;;;;7.15;1.45;;;;;;;21.34;60.27;94645.09;2617319;47;20164;-82
2022/05/31 19:38:52;;;;;;;3.78;1.80;;;;;;;21.88;59.37;94684.19;2616590;54;20160;-82
2022/05/31 19:41:24;;;;;;;2.42;2.10;;;;;;;21.84;59.13;94689.28;2617307;54;20157;-82
2022/05/31 19:43:53;;;;;;;2.15;1.92;;;;;;;21.08;62.48;94685.59;2618251;47;20675;-83
2022/05/31 19:46:22;;;;;;;3.35;3.05;;;;;;;20.72;63.59;94692.31;2618079;39;20569;-83
2022/05/31 19:48:51;;;;;;;2.28;2.13;;;;;;;20.42;63.16;94662.28;2617414;47;20264;-82
2022/05/31 19:51:22;;;;;;;1.75;1.65;;;;;;;20.15;64.47;94669.56;2617694;54;20161;-83
2022/05/31 19:53:58;;;;;;;2.78;2.60;;;;;;;19.63;65.33;94602.19;2615982;47;20172;-84
2022/05/31 19:56:27;;;;;;;3.10;2.80;;;;;;;20.04;64.89;94653.78;2616959;54;20248;-82
2022/05/31 19:58:56;;;;;;;2.45;1.85;;;;;;;20.44;63.17;94647.16;2616768;54;20168;-82
2022/05/31 20:01:24;;;;;;;1.85;1.75;;;;;;;20.98;61.52;94654.72;2616360;54;20260;-82
2022/05/31 20:04:02;;;;;;;1.25;1.25;;;;;;;21.07;61.24;94656.09;2616867;47;20186;-83
2022/05/31 20:06:34;;;;;;;1.80;1.70;;;;;;;21.49;60.38;94675.22;2617390;54;20180;-83
2022/05/31 20:11:47;;;;;;;1.77;1.65;;;;;;;21.24;60.10;94627.91;2617094;47;20144;-83
2022/05/31 20:14:16;;;;;;;2.80;2.03;;;;;;;21.02;60.62;94634.53;2616952;54;20695;-83
2022/05/31 20:16:45;;;;;;;1.67;1.58;;;;;;;21.08;59.96;94602.81;2617296;47;20172;-82
2022/05/31 20:19:20;;;;;;;1.85;1.50;;;;;;;21.19;60.34;94621.44;2617361;47;20173;-83
2022/05/31 20:21:56;;;;;;;2.35;2.25;;;;;;;20.75;59.79;94564.25;2617569;54;20199;-83
2022/05/31 20:24:28;;;;;;;1.90;1.80;;;;;;;21.40;60.05;94653.69;2617346;47;20195;-83
2022/05/31 20:26:58;;;;;;;2.03;1.92;;;;;;;21.42;60.48;94685.38;2618197;54;20172;-82
2022/05/31 20:29:30;;;;;;;1.60;1.50;;;;;;;21.26;59.52;94645.16;2618049;54;20157;-82
2022/05/31 20:31:59;;;;;;;2.22;2.10;;;;;;;21.48;60.16;94690.34;2618056;54;20230;-83
2022/05/31 20:34:28;;;;;;;2.30;1.80;;;;;;;20.65;60.77;94613.22;2617368;47;20896;-83
2022/05/31 20:37:01;;;;;;;2.08;1.92;;;;;;;21.03;61.30;94664.06;2618145;47;20184;-83
2022/05/31 20:39:32;;;;;;;2.25;2.08;;;;;;;21.17;60.01;94687.00;2618263;47;20161;-82
2022/05/31 20:42:03;;;;;;;2.22;2.13;;;;;;;21.02;61.61;94688.53;2618263;47;20165;-82
2022/05/31 20:44:33;;;;;;;1.35;1.35;;;;;;;20.80;60.84;94646.22;2618485;54;20667;-82
2022/05/31 20:47:02;;;;;;;1.60;1.50;;;;;;;21.10;61.09;94694.94;2617975;47;20163;-82
2022/05/31 20:49:33;;;;;;;2.47;1.60;;;;;;;20.39;61.35;94620.56;2618321;54;20172;-82
2022/05/31 20:52:04;;;;;;;2.53;2.33;;;;;;;20.37;63.49;94700.41;2618330;47;20153;-82
2022/05/31 20:54:34;;;;;;;1.73;1.63;;;;;;;20.05;64.72;94693.31;2618233;54;20248;-83
2022/05/31 20:57:03;;;;;;;1.48;1.38;;;;;;;19.55;65.59;94682.66;2617849;54;20172;-83
2022/05/31 20:59:31;;;;;;;1.85;1.00;;;;;;;19.55;65.91;94699.88;2618088;47;20173;-82
2022/05/31 21:02:00;;;;;;;1.83;1.70;;;;;;;18.84;67.52;94671.16;2617858;54;20149;-83
2022/05/31 21:04:29;;;;;;;2.20;2.10;;;;;;;18.90;68.39;94699.13;2618277;39;20586;-82
2022/05/31 21:06:57;;;;;;;1.98;1.85;;;;;;;18.76;69.05;94694.09;2617987;54;20252;-82
2022/05/31 21:09:31;;;;;;;1.87;1.77;;;;;;;18.06;68.77;94632.94;2617651;47;20303;-82
2022/05/31 21:12:01;;;;;;;3.70;1.70;;;;;;;17.37;70.31;94566.75;2617583;47;20172;-83
2022/05/31 21:14:35;;;;;;;1.83;1.60;;;;;;;18.39;70.27;94678.94;2617760;47;20250;-82
2022/05/31 21:17:04;;;;;;;2.10;2.00;;;;;;;17.25;69.08;94546.66;2618187;47;20253;-83
2022/05/31 21:19:32;;;;;;;2.57;2.13;;;;;;;17.45;70.39;94662.72;2617953;47;20168;-82
2022/05/31 21:22:01;;;;;;;1.93;1.50;;;;;;;16.56;72.69;94623.38;2617988;47;20172;-82
2022/05/31 21:24:33;;;;;;;1.63;1.53;;;;;;;16.28;74.20;94632.41;2617703;47;20288;-82
2022/05/31 21:27:01;;;;;;;1.73;1.63;;;;;;;15.99;76.93;94636.34;2617872;47;20407;-81
2022/05/31 21:29:33;;;;;;;2.70;2.50;;;;;;;16.08;76.76;94603.63;2617915;46;20311;-81
2022/05/31 21:32:03;;;;;;;2.07;1.97;;;;;;;16.48;74.29;94642.59;2617588;54;20663;-82
2022/05/31 21:34:31;;;;;;;2.10;2.00;;;;;;;15.59;74.94;94548.81;2617819;47;20671;-81
2022/05/31 21:37:03;;;;;;;2.40;2.30;;;;;;;16.54;75.67;94686.25;2618025;47;20153;-82
2022/05/31 21:42:17;;;;;;;2.30;2.20;;;;;;;16.15;76.64;94647.97;2618044;46;20156;-82
2022/05/31 21:44:46;;;;;;;1.77;1.67;;;;;;;15.52;76.64;94558.72;2617846;54;20240;-82
2022/05/31 21:47:15;;;;;;;1.93;1.77;;;;;;;17.35;75.40;94689.16;2617690;54;20153;-82
2022/05/31 21:49:43;;;;;;;5.63;2.43;;;;;;;18.22;70.67;94648.78;2617543;54;20767;-82
2022/05/31 21:52:13;;;;;;;3.87;2.23;;;;;;;18.71;69.99;94669.72;2617586;51;20222;-82
2022/05/31 21:54:51;;;;;;;2.43;2.23;;;;;;;19.21;67.92;94668.31;2617879;46;20149;-82
2022/05/31 21:57:23;;;;;;;2.30;1.50;;;;;;;19.42;66.19;94630.22;2618065;47;20141;-82
2022/05/31 21:59:51;;;;;;;1.40;1.30;;;;;;;19.98;64.32;94668.19;2617706;54;20280;-82
2022/05/31 22:02:24;;;;;;;1.70;1.60;;;;;;;19.94;63.71;94645.94;2618048;39;20826;-82
2022/05/31 22:04:54;;;;;;;1.85;1.75;;;;;;;20.38;63.63;94691.03;2618094;54;20156;-82
2022/05/31 22:07:23;;;;;;;2.10;1.90;;;;;;;20.55;62.64;94683.06;2617774;47;20178;-81
2022/05/31 22:09:55;;;;;;;1.85;1.75;;;;;;;20.79;61.79;94676.44;2617684;46;20678;-81
2022/05/31 22:12:23;;;;;;;2.53;2.33;;;;;;;20.27;61.83;94649.38;2618419;39;20670;-81
2022/05/31 22:14:52;;;;;;;1.80;1.70;;;;;;;20.29;62.65;94674.53;2617738;54;20191;-81
2022/05/31 22:17:21;;;;;;;2.38;2.15;;;;;;;19.42;62.24;94684.78;2617651;54;20295;-82
2022/05/31 22:19:49;;;;;;;4.53;1.87;;;;;;;18.88;65.02;94691.25;2617831;47;20160;-81
2022/05/31 22:22:20;;;;;;;5.03;3.37;;;;;;;18.29;65.49;94658.84;2617872;47;20198;-81
2022/05/31 22:27:32;;;;;;;2.20;2.00;;;;;;;17.06;73.10;94673.91;2617720;47;20149;-81
2022/05/31 22:30:01;;;;;;;2.03;1.73;;;;;;;16.99;72.98;94635.91;2617579;47;20731;-82
2022/05/31 22:32:30;;;;;;;8.47;1.90;;;;;;;17.82;71.00;94683.72;2617456;47;20169;-82
2022/05/31 22:34:59;;;;;;;1.80;1.70;;;;;;;17.70;71.47;94670.75;2617852;47;20157;-81
2022/05/31 22:37:27;;;;;;;2.83;1.97;;;;;;;17.81;71.20;94660.06;2617249;54;20207;-81
2022/05/31 22:40:01;;;;;;;2.57;2.37;;;;;;;17.98;71.02;94684.50;2617489;47;20178;-82
2022/05/31 22:42:39;;;;;;;3.00;2.80;;;;;;;16.72;71.83;94607.81;2617865;54;20145;-82
2022/05/31 22:45:09;;;;;;;1.70;1.60;;;;;;;16.57;72.14;94601.22;2617510;47;20161;-82
2022/05/31 22:47:39;;;;;;;1.77;1.67;;;;;;;16.84;71.97;94660.09;2617266;47;20157;-82
2022/05/31 22:50:10;;;;;;;2.13;1.87;;;;;;;16.34;74.16;94666.03;2617448;54;20248;-82
2022/05/31 22:52:38;;;;;;;2.40;2.30;;;;;;;15.68;75.00;94618.16;2617838;47;20790;-82
2022/05/31 22:55:08;;;;;;;2.30;1.73;;;;;;;14.89;77.06;94594.25;2617888;47;20172;-82
2022/05/31 22:57:41;;;;;;;1.53;1.33;;;;;;;15.01;79.78;94679.25;2617745;47;20267;-82
2022/05/31 23:00:13;;;;;;;2.17;1.97;;;;;;;14.53;79.95;94595.09;2617163;54;20702;-82
2022/05/31 23:02:44;;;;;;;1.57;1.47;;;;;;;14.98;79.07;94635.00;2617761;54;20156;-83
2022/05/31 23:05:13;;;;;;;2.83;1.90;;;;;;;14.54;77.50;94545.25;2617536;54;20157;-82
2022/05/31 23:07:41;;;;;;;2.03;1.90;;;;;;;14.99;79.21;94668.53;2617688;47;20214;-82
2022/05/31 23:10:11;;;;;;;1.80;1.70;;;;;;;15.46;78.58;94677.78;2617794;47;20153;-82
2022/05/31 23:12:42;;;;;;;2.40;2.20;;;;;;;15.59;77.94;94677.28;2617881;54;20192;-82
2022/05/31 23:15:11;;;;;;;1.70;1.60;;;;;;;15.27;78.67;94682.50;2617902;54;20168;-82
2022/05/31 23:17:43;;;;;;;2.20;2.10;;;;;;;15.11;79.45;94679.41;2618456;39;20564;-81
2022/05/31 23:20:16;;;;;;;3.73;1.80;;;;;;;14.89;78.64;94640.59;2617983;54;20191;-81
2022/05/31 23:25:28;;;;;;;1.73;1.63;;;;;;;15.33;78.55;94673.31;2618258;47;20158;-82
2022/05/31 23:28:00;;;;;;;2.27;2.17;;;;;;;15.12;78.41;94666.59;2617984;54;20157;-81
2022/05/31 23:33:15;;;;;;;2.50;2.30;;;;;;;14.94;82.50;94670.59;2617603;47;20133;-81
2022/05/31 23:35:45;;;;;;;2.40;2.30;;;;;;;15.48;77.55;94661.41;2617903;47;20335;-81
2022/05/31 23:38:14;;;;;;;2.67;2.13;;;;;;;15.37;76.50;94585.63;2619400;31;20625;-81
2022/05/31 23:40:42;;;;;;;2.50;2.30;;;;;;;15.91;75.61;94602.00;2617707;54;20156;-81
2022/05/31 23:43:14;;;;;;;2.27;2.17;;;;;;;16.25;74.41;94613.09;2617703;47;20150;-81
2022/05/31 23:45:43;;;;;;;3.27;2.57;;;;;;;16.25;72.95;94635.94;2617916;54;20165;-81
2022/05/31 23:48:12;;;;;;;4.50;2.30;;;;;;;16.17;73.48;94661.56;2617158;47;20260;-82
2022/05/31 23:50:42;;;;;;;1.80;1.70;;;;;;;15.80;75.06;94643.28;2617845;54;20160;-81
2022/05/31 23:53:12;;;;;;;2.40;2.30;;;;;;;15.57;74.84;94599.47;2618267;47;20240;-81
2022/05/31 23:55:41;;;;;;;8.80;2.00;;;;;;;15.87;75.54;94647.66;2618214;54;20206;-81
2022/05/31 23:58:12;;;;;;;6.80;1.97;;;;;;;15.95;76.54;94622.06;2618090;54;20195;-81
